sensor_id;sensor_type;location;lat;lon;timestamp;pressure;altitude;pressure_sealevel;temperature;humidity
60697;BME280;46536;54.376;19.858;2022-08-20T00:01:22;101128.42;;;26.10;49.34
60697;BME280;46536;54.376;19.858;2022-08-20T00:04:20;101124.39;;;26.06;49.61
60697;BME280;46536;54.376;19.858;2022-08-20T00:07:19;101127.70;;;26.01;49.77
60697;BME280;46536;54.376;19.858;2022-08-20T00:09:57;101131.55;;;25.96;49.86
60697;BME280;46536;54.376;19.858;2022-08-20T00:12:41;101130.95;;;25.93;49.91
60697;BME280;46536;54.376;19.858;2022-08-20T00:15:39;101139.98;;;25.90;49.90
60697;BME280;46536;54.376;19.858;2022-08-20T00:18:35;101147.48;;;25.88;50.11
60697;BME280;46536;54.376;19.858;2022-08-20T00:27:00;101160.58;;;25.75;50.96
60697;BME280;46536;54.376;19.858;2022-08-20T00:30:13;101157.69;;;25.68;51.42
60697;BME280;46536;54.376;19.858;2022-08-20T00:33:02;101166.16;;;25.61;51.67
60697;BME280;46536;54.376;19.858;2022-08-20T00:36:43;101179.67;;;25.53;52.21
60697;BME280;46536;54.376;19.858;2022-08-20T00:39:15;101179.24;;;25.44;53.92
60697;BME280;46536;54.376;19.858;2022-08-20T00:41:58;101173.04;;;25.29;55.36
60697;BME280;46536;54.376;19.858;2022-08-20T00:44:58;101172.35;;;25.09;56.55
60697;BME280;46536;54.376;19.858;2022-08-20T00:47:55;101175.20;;;24.91;57.35
60697;BME280;46536;54.376;19.858;2022-08-20T00:54:00;101182.46;;;24.57;59.18
60697;BME280;46536;54.376;19.858;2022-08-20T00:56:44;101180.81;;;24.44;59.86
60697;BME280;46536;54.376;19.858;2022-08-20T01:06:13;101179.69;;;24.07;61.36
60697;BME280;46536;54.376;19.858;2022-08-20T01:09:33;101180.05;;;24.03;61.76
60697;BME280;46536;54.376;19.858;2022-08-20T01:12:31;101179.23;;;24.02;62.16
60697;BME280;46536;54.376;19.858;2022-08-20T01:19:23;101180.69;;;24.01;63.22
60697;BME280;46536;54.376;19.858;2022-08-20T01:26:43;101184.14;;;23.97;63.88
60697;BME280;46536;54.376;19.858;2022-08-20T01:30:09;101186.67;;;23.92;63.99
60697;BME280;46536;54.376;19.858;2022-08-20T01:32:58;101183.06;;;23.86;64.06
60697;BME280;46536;54.376;19.858;2022-08-20T01:35:51;101181.04;;;23.83;64.26
60697;BME280;46536;54.376;19.858;2022-08-20T01:53:23;101185.68;;;23.51;64.46
60697;BME280;46536;54.376;19.858;2022-08-20T01:56:15;101182.59;;;23.48;64.43
60697;BME280;46536;54.376;19.858;2022-08-20T01:59:25;101184.28;;;23.46;64.50
60697;BME280;46536;54.376;19.858;2022-08-20T02:08:38;101183.13;;;23.43;64.61
60697;BME280;46536;54.376;19.858;2022-08-20T02:14:34;101173.70;;;23.39;64.67
60697;BME280;46536;54.376;19.858;2022-08-20T02:17:56;101165.16;;;23.37;64.67
60697;BME280;46536;54.376;19.858;2022-08-20T02:20:55;101155.25;;;23.37;64.75
60697;BME280;46536;54.376;19.858;2022-08-20T02:23:57;101149.75;;;23.39;64.69
60697;BME280;46536;54.376;19.858;2022-08-20T02:27:17;101159.12;;;23.42;64.50
60697;BME280;46536;54.376;19.858;2022-08-20T02:30:39;101158.55;;;23.42;64.68
60697;BME280;46536;54.376;19.858;2022-08-20T02:34:21;101154.13;;;23.40;64.84
60697;BME280;46536;54.376;19.858;2022-08-20T02:46:59;101158.95;;;23.41;65.01
60697;BME280;46536;54.376;19.858;2022-08-20T02:53:08;101164.77;;;23.45;65.31
60697;BME280;46536;54.376;19.858;2022-08-20T02:56:34;101169.86;;;23.50;65.37
60697;BME280;46536;54.376;19.858;2022-08-20T02:59:22;101180.10;;;23.54;65.48
60697;BME280;46536;54.376;19.858;2022-08-20T03:05:32;101190.27;;;23.60;65.45
60697;BME280;46536;54.376;19.858;2022-08-20T03:08:31;101194.15;;;23.60;65.38
60697;BME280;46536;54.376;19.858;2022-08-20T03:11:26;101189.86;;;23.63;65.27
60697;BME280;46536;54.376;19.858;2022-08-20T03:17:26;101185.17;;;23.81;64.92
60697;BME280;46536;54.376;19.858;2022-08-20T03:20:28;101181.80;;;23.89;64.79
60697;BME280;46536;54.376;19.858;2022-08-20T03:26:35;101170.32;;;23.94;64.44
60697;BME280;46536;54.376;19.858;2022-08-20T03:29:58;101170.82;;;23.91;64.58
60697;BME280;46536;54.376;19.858;2022-08-20T03:33:12;101174.69;;;23.87;64.45
60697;BME280;46536;54.376;19.858;2022-08-20T03:36:15;101177.94;;;23.82;64.58
60697;BME280;46536;54.376;19.858;2022-08-20T03:39:47;101180.08;;;23.78;64.69
60697;BME280;46536;54.376;19.858;2022-08-20T03:46:39;101186.67;;;23.69;64.94
60697;BME280;46536;54.376;19.858;2022-08-20T03:53:28;101197.83;;;23.54;65.48
60697;BME280;46536;54.376;19.858;2022-08-20T03:56:34;101200.64;;;23.52;65.65
60697;BME280;46536;54.376;19.858;2022-08-20T04:05:59;101199.73;;;23.41;66.26
60697;BME280;46536;54.376;19.858;2022-08-20T04:08:43;101202.48;;;23.38;66.53
60697;BME280;46536;54.376;19.858;2022-08-20T04:15:06;101199.35;;;23.27;66.89
60697;BME280;46536;54.376;19.858;2022-08-20T04:20:50;101203.68;;;23.20;67.18
60697;BME280;46536;54.376;19.858;2022-08-20T04:24:13;101206.15;;;23.18;67.40
60697;BME280;46536;54.376;19.858;2022-08-20T04:27:05;101203.33;;;23.15;67.47
60697;BME280;46536;54.376;19.858;2022-08-20T04:33:32;101198.34;;;23.14;68.05
60697;BME280;46536;54.376;19.858;2022-08-20T04:40:11;101198.31;;;23.10;68.73
60697;BME280;46536;54.376;19.858;2022-08-20T04:43:38;101197.04;;;23.06;68.82
60697;BME280;46536;54.376;19.858;2022-08-20T04:46:45;101197.37;;;23.04;68.90
60697;BME280;46536;54.376;19.858;2022-08-20T04:50:02;101199.21;;;23.05;68.95
60697;BME280;46536;54.376;19.858;2022-08-20T05:03:16;101189.86;;;23.13;68.90
60697;BME280;46536;54.376;19.858;2022-08-20T05:06:20;101192.64;;;23.18;68.61
60697;BME280;46536;54.376;19.858;2022-08-20T05:09:24;101191.41;;;23.25;68.50
60697;BME280;46536;54.376;19.858;2022-08-20T05:15:55;101190.43;;;23.32;68.04
60697;BME280;46536;54.376;19.858;2022-08-20T05:21:40;101190.58;;;23.39;67.90
60697;BME280;46536;54.376;19.858;2022-08-20T05:28:05;101191.68;;;23.47;67.56
60697;BME280;46536;54.376;19.858;2022-08-20T05:31:10;101187.11;;;23.51;67.43
60697;BME280;46536;54.376;19.858;2022-08-20T05:34:11;101183.45;;;23.57;67.30
60697;BME280;46536;54.376;19.858;2022-08-20T05:37:20;101181.99;;;23.64;67.18
60697;BME280;46536;54.376;19.858;2022-08-20T05:40:32;101184.83;;;23.72;67.15
60697;BME280;46536;54.376;19.858;2022-08-20T05:50:04;101174.20;;;23.94;66.65
60697;BME280;46536;54.376;19.858;2022-08-20T05:53:36;101176.45;;;23.99;66.50
60697;BME280;46536;54.376;19.858;2022-08-20T06:00:24;101176.36;;;24.11;66.51
60697;BME280;46536;54.376;19.858;2022-08-20T06:03:09;101168.73;;;24.17;66.23
60697;BME280;46536;54.376;19.858;2022-08-20T06:06:15;101161.41;;;24.23;66.18
60697;BME280;46536;54.376;19.858;2022-08-20T06:09:31;101163.88;;;24.30;65.95
60697;BME280;46536;54.376;19.858;2022-08-20T06:12:22;101166.73;;;24.34;65.41
60697;BME280;46536;54.376;19.858;2022-08-20T06:15:16;101164.05;;;24.34;64.98
60697;BME280;46536;54.376;19.858;2022-08-20T06:18:16;101160.83;;;24.37;64.99
60697;BME280;46536;54.376;19.858;2022-08-20T06:21:13;101163.61;;;24.39;64.84
60697;BME280;46536;54.376;19.858;2022-08-20T06:24:05;101164.10;;;24.44;64.69
60697;BME280;46536;54.376;19.858;2022-08-20T06:27:15;101166.08;;;24.48;64.39
60697;BME280;46536;54.376;19.858;2022-08-20T06:30:12;101162.96;;;24.49;64.04
60697;BME280;46536;54.376;19.858;2022-08-20T06:33:11;101165.15;;;24.50;63.98
60697;BME280;46536;54.376;19.858;2022-08-20T06:36:19;101173.25;;;24.51;63.99
60697;BME280;46536;54.376;19.858;2022-08-20T06:39:33;101180.19;;;24.53;63.76
60697;BME280;46536;54.376;19.858;2022-08-20T06:45:38;101187.17;;;24.58;63.60
60697;BME280;46536;54.376;19.858;2022-08-20T06:48:57;101194.70;;;24.59;63.54
60697;BME280;46536;54.376;19.858;2022-08-20T06:52:25;101206.34;;;24.60;63.61
60697;BME280;46536;54.376;19.858;2022-08-20T06:55:58;101207.85;;;24.61;63.60
60697;BME280;46536;54.376;19.858;2022-08-20T06:59:02;101215.22;;;24.66;63.68
60697;BME280;46536;54.376;19.858;2022-08-20T07:01:52;101224.36;;;24.71;63.62
60697;BME280;46536;54.376;19.858;2022-08-20T07:04:47;101224.36;;;24.74;63.28
60697;BME280;46536;54.376;19.858;2022-08-20T07:07:26;101228.91;;;24.72;63.09
60697;BME280;46536;54.376;19.858;2022-08-20T07:10:20;101235.86;;;24.74;63.05
60697;BME280;46536;54.376;19.858;2022-08-20T07:13:19;101238.34;;;24.76;63.10
60697;BME280;46536;54.376;19.858;2022-08-20T07:16:33;101235.73;;;24.77;62.85
60697;BME280;46536;54.376;19.858;2022-08-20T07:19:46;101231.70;;;24.77;62.72
60697;BME280;46536;54.376;19.858;2022-08-20T07:22:33;101234.98;;;24.76;62.70
60697;BME280;46536;54.376;19.858;2022-08-20T07:32:18;101234.64;;;24.78;62.49
60697;BME280;46536;54.376;19.858;2022-08-20T07:35:48;101233.09;;;24.75;62.82
60697;BME280;46536;54.376;19.858;2022-08-20T07:39:00;101229.96;;;24.78;62.84
60697;BME280;46536;54.376;19.858;2022-08-20T07:42:16;101226.38;;;24.83;62.80
60697;BME280;46536;54.376;19.858;2022-08-20T07:45:07;101225.40;;;24.88;63.16
60697;BME280;46536;54.376;19.858;2022-08-20T07:51:29;101229.36;;;24.97;62.75
60697;BME280;46536;54.376;19.858;2022-08-20T07:54:27;101233.60;;;25.00;62.55
60697;BME280;46536;54.376;19.858;2022-08-20T07:57:20;101233.54;;;25.01;62.58
60697;BME280;46536;54.376;19.858;2022-08-20T08:00:36;101237.43;;;25.03;62.68
60697;BME280;46536;54.376;19.858;2022-08-20T08:03:51;101233.56;;;25.06;62.40
60697;BME280;46536;54.376;19.858;2022-08-20T08:06:44;101233.05;;;25.08;62.33
60697;BME280;46536;54.376;19.858;2022-08-20T08:09:50;101233.03;;;25.08;62.27
60697;BME280;46536;54.376;19.858;2022-08-20T08:12:55;101233.59;;;25.10;62.32
60697;BME280;46536;54.376;19.858;2022-08-20T08:15:58;101242.23;;;25.14;62.55
60697;BME280;46536;54.376;19.858;2022-08-20T08:18:42;101243.55;;;25.17;62.47
60697;BME280;46536;54.376;19.858;2022-08-20T08:21:32;101239.71;;;25.21;62.62
60697;BME280;46536;54.376;19.858;2022-08-20T08:24:55;101236.96;;;25.26;62.42
60697;BME280;46536;54.376;19.858;2022-08-20T08:28:14;101241.70;;;25.30;62.36
60697;BME280;46536;54.376;19.858;2022-08-20T08:31:00;101242.13;;;25.35;62.32
60697;BME280;46536;54.376;19.858;2022-08-20T08:33:42;101237.60;;;25.42;62.23
60697;BME280;46536;54.376;19.858;2022-08-20T08:36:18;101239.64;;;25.49;62.00
60697;BME280;46536;54.376;19.858;2022-08-20T08:39:12;101249.02;;;25.51;61.83
60697;BME280;46536;54.376;19.858;2022-08-20T08:46:17;101245.71;;;25.70;61.82
60697;BME280;46536;54.376;19.858;2022-08-20T08:49:06;101245.41;;;25.89;61.70
60697;BME280;46536;54.376;19.858;2022-08-20T08:55:30;101237.80;;;26.38;60.43
60697;BME280;46536;54.376;19.858;2022-08-20T08:58:25;101233.95;;;26.54;60.28
60697;BME280;46536;54.376;19.858;2022-08-20T09:04:47;101232.61;;;27.01;59.45
60697;BME280;46536;54.376;19.858;2022-08-20T09:07:52;101231.73;;;27.17;57.86
60697;BME280;46536;54.376;19.858;2022-08-20T09:11:06;101230.29;;;27.28;57.62
60697;BME280;46536;54.376;19.858;2022-08-20T09:14:25;101229.66;;;27.47;57.30
60697;BME280;46536;54.376;19.858;2022-08-20T09:17:03;101229.09;;;27.67;56.22
60697;BME280;46536;54.376;19.858;2022-08-20T09:23:27;101228.75;;;27.91;55.00
60697;BME280;46536;54.376;19.858;2022-08-20T09:26:09;101214.70;;;28.00;54.55
60697;BME280;46536;54.376;19.858;2022-08-20T09:28:51;101220.23;;;28.12;54.78
60697;BME280;46536;54.376;19.858;2022-08-20T09:35:00;101218.14;;;28.38;53.71
60697;BME280;46536;54.376;19.858;2022-08-20T09:38:12;101215.11;;;28.33;53.31
60697;BME280;46536;54.376;19.858;2022-08-20T09:41:05;101218.20;;;28.24;53.47
60697;BME280;46536;54.376;19.858;2022-08-20T09:44:12;101215.92;;;28.17;53.18
60697;BME280;46536;54.376;19.858;2022-08-20T09:47:19;101216.23;;;28.14;53.24
60697;BME280;46536;54.376;19.858;2022-08-20T09:50:47;101214.19;;;28.10;53.29
60697;BME280;46536;54.376;19.858;2022-08-20T09:53:36;101218.13;;;28.11;53.54
60697;BME280;46536;54.376;19.858;2022-08-20T09:56:29;101216.18;;;28.16;53.57
60697;BME280;46536;54.376;19.858;2022-08-20T10:00:05;101218.91;;;28.25;53.48
60697;BME280;46536;54.376;19.858;2022-08-20T10:03:04;101218.16;;;28.34;53.02
60697;BME280;46536;54.376;19.858;2022-08-20T10:05:48;101216.04;;;28.37;52.83
60697;BME280;46536;54.376;19.858;2022-08-20T10:11:55;101211.21;;;28.51;53.04
60697;BME280;46536;54.376;19.858;2022-08-20T10:14:56;101211.86;;;28.62;52.48
60697;BME280;46536;54.376;19.858;2022-08-20T10:18:02;101213.66;;;28.66;52.09
60697;BME280;46536;54.376;19.858;2022-08-20T10:21:25;101210.33;;;28.71;52.48
60697;BME280;46536;54.376;19.858;2022-08-20T10:24:10;101211.21;;;28.78;52.38
60697;BME280;46536;54.376;19.858;2022-08-20T10:27:02;101213.96;;;28.88;52.25
60697;BME280;46536;54.376;19.858;2022-08-20T10:29:41;101217.74;;;28.94;52.14
60697;BME280;46536;54.376;19.858;2022-08-20T10:35:09;101207.55;;;28.94;51.29
60697;BME280;46536;54.376;19.858;2022-08-20T10:37:41;101207.41;;;28.97;51.80
60697;BME280;46536;54.376;19.858;2022-08-20T10:40:18;101206.38;;;29.03;51.84
60697;BME280;46536;54.376;19.858;2022-08-20T10:46:21;101207.17;;;29.16;51.79
60697;BME280;46536;54.376;19.858;2022-08-20T10:49:03;101205.23;;;29.21;51.44
60697;BME280;46536;54.376;19.858;2022-08-20T10:51:53;101205.20;;;29.27;51.38
60697;BME280;46536;54.376;19.858;2022-08-20T10:55:02;101207.20;;;29.35;51.09
60697;BME280;46536;54.376;19.858;2022-08-20T10:58:03;101207.66;;;29.42;51.00
60697;BME280;46536;54.376;19.858;2022-08-20T11:01:08;101207.57;;;29.43;50.73
60697;BME280;46536;54.376;19.858;2022-08-20T11:13:47;101206.77;;;29.21;51.21
60697;BME280;46536;54.376;19.858;2022-08-20T11:16:26;101201.58;;;29.21;51.58
60697;BME280;46536;54.376;19.858;2022-08-20T11:19:53;101200.67;;;29.20;51.43
60697;BME280;46536;54.376;19.858;2022-08-20T11:22:12;101194.02;;;29.17;51.22
60697;BME280;46536;54.376;19.858;2022-08-20T11:24:59;101195.52;;;29.16;51.23
60697;BME280;46536;54.376;19.858;2022-08-20T11:27:50;101194.34;;;29.15;51.52
60697;BME280;46536;54.376;19.858;2022-08-20T11:30:55;101194.61;;;29.14;51.82
60697;BME280;46536;54.376;19.858;2022-08-20T11:33:45;101195.34;;;29.18;51.82
60697;BME280;46536;54.376;19.858;2022-08-20T11:36:43;101191.83;;;29.25;52.16
60697;BME280;46536;54.376;19.858;2022-08-20T11:39:45;101191.16;;;29.33;51.48
60697;BME280;46536;54.376;19.858;2022-08-20T11:42:47;101193.65;;;29.36;51.63
60697;BME280;46536;54.376;19.858;2022-08-20T11:46:09;101189.69;;;29.41;51.17
60697;BME280;46536;54.376;19.858;2022-08-20T11:48:47;101189.59;;;29.39;51.25
60697;BME280;46536;54.376;19.858;2022-08-20T11:51:41;101186.50;;;29.36;51.14
60697;BME280;46536;54.376;19.858;2022-08-20T11:54:40;101187.78;;;29.34;50.99
60697;BME280;46536;54.376;19.858;2022-08-20T11:57:44;101190.22;;;29.34;51.05
60697;BME280;46536;54.376;19.858;2022-08-20T12:03:19;101196.73;;;29.33;51.66
60697;BME280;46536;54.376;19.858;2022-08-20T12:06:15;101199.05;;;29.35;51.76
60697;BME280;46536;54.376;19.858;2022-08-20T12:08:55;101203.01;;;29.38;51.70
60697;BME280;46536;54.376;19.858;2022-08-20T12:14:58;101203.80;;;29.32;51.71
60697;BME280;46536;54.376;19.858;2022-08-20T12:17:44;101208.36;;;29.28;51.63
60697;BME280;46536;54.376;19.858;2022-08-20T12:21:07;101206.25;;;29.24;52.12
60697;BME280;46536;54.376;19.858;2022-08-20T12:23:59;101208.20;;;29.25;52.00
60697;BME280;46536;54.376;19.858;2022-08-20T12:27:40;101212.05;;;29.19;51.77
60697;BME280;46536;54.376;19.858;2022-08-20T12:30:23;101208.02;;;29.11;51.81
60697;BME280;46536;54.376;19.858;2022-08-20T12:36:37;101211.02;;;29.10;51.71
60697;BME280;46536;54.376;19.858;2022-08-20T12:39:29;101215.77;;;29.06;51.88
60697;BME280;46536;54.376;19.858;2022-08-20T12:42:44;101215.42;;;29.04;51.70
60697;BME280;46536;54.376;19.858;2022-08-20T12:45:50;101218.84;;;29.04;51.26
60697;BME280;46536;54.376;19.858;2022-08-20T12:49:25;101219.55;;;29.04;51.30
60697;BME280;46536;54.376;19.858;2022-08-20T12:52:09;101226.73;;;29.05;51.58
60697;BME280;46536;54.376;19.858;2022-08-20T12:58:12;101219.79;;;29.08;51.29
60697;BME280;46536;54.376;19.858;2022-08-20T13:01:33;101219.88;;;29.04;50.73
60697;BME280;46536;54.376;19.858;2022-08-20T13:07:25;101213.14;;;28.91;50.60
60697;BME280;46536;54.376;19.858;2022-08-20T13:10:02;101214.23;;;28.89;51.08
60697;BME280;46536;54.376;19.858;2022-08-20T13:12:48;101213.67;;;28.85;50.98
60697;BME280;46536;54.376;19.858;2022-08-20T13:19:03;101202.42;;;28.73;51.19
60697;BME280;46536;54.376;19.858;2022-08-20T13:21:55;101206.17;;;28.70;51.15
60697;BME280;46536;54.376;19.858;2022-08-20T13:27:47;101202.30;;;28.61;51.31
60697;BME280;46536;54.376;19.858;2022-08-20T13:30:52;101202.69;;;28.59;51.13
60697;BME280;46536;54.376;19.858;2022-08-20T13:33:56;101201.33;;;28.61;51.28
60697;BME280;46536;54.376;19.858;2022-08-20T13:36:36;101199.99;;;28.67;51.66
60697;BME280;46536;54.376;19.858;2022-08-20T13:39:44;101199.52;;;28.75;52.02
60697;BME280;46536;54.376;19.858;2022-08-20T13:45:23;101195.55;;;28.96;52.18
60697;BME280;46536;54.376;19.858;2022-08-20T13:48:12;101195.15;;;29.11;52.01
60697;BME280;46536;54.376;19.858;2022-08-20T13:51:24;101192.77;;;29.25;51.71
60697;BME280;46536;54.376;19.858;2022-08-20T13:54:41;101190.09;;;29.38;50.92
60697;BME280;46536;54.376;19.858;2022-08-20T14:01:22;101180.48;;;29.69;50.67
60697;BME280;46536;54.376;19.858;2022-08-20T14:04:03;101178.76;;;29.86;50.39
60697;BME280;46536;54.376;19.858;2022-08-20T14:06:48;101180.12;;;30.06;50.09
60697;BME280;46536;54.376;19.858;2022-08-20T14:09:37;101184.38;;;30.25;49.50
60697;BME280;46536;54.376;19.858;2022-08-20T14:12:59;101184.77;;;30.46;49.04
60697;BME280;46536;54.376;19.858;2022-08-20T14:15:38;101181.99;;;30.64;48.54
60697;BME280;46536;54.376;19.858;2022-08-20T14:18:25;101182.85;;;30.77;48.28
60697;BME280;46536;54.376;19.858;2022-08-20T14:24:08;101179.21;;;30.88;47.53
60697;BME280;46536;54.376;19.858;2022-08-20T14:27:19;101176.41;;;30.84;47.37
60697;BME280;46536;54.376;19.858;2022-08-20T14:29:59;101173.41;;;30.76;47.63
60697;BME280;46536;54.376;19.858;2022-08-20T14:33:06;101166.16;;;30.64;47.56
60697;BME280;46536;54.376;19.858;2022-08-20T14:35:45;101159.13;;;30.53;47.74
60697;BME280;46536;54.376;19.858;2022-08-20T14:38:40;101157.23;;;30.42;47.82
60697;BME280;46536;54.376;19.858;2022-08-20T14:47:29;101162.40;;;30.12;48.20
60697;BME280;46536;54.376;19.858;2022-08-20T14:50:40;101165.54;;;30.03;48.38
60697;BME280;46536;54.376;19.858;2022-08-20T14:53:27;101169.39;;;29.97;48.51
60697;BME280;46536;54.376;19.858;2022-08-20T14:56:24;101170.45;;;29.93;48.63
60697;BME280;46536;54.376;19.858;2022-08-20T14:59:14;101177.42;;;29.87;48.59
60697;BME280;46536;54.376;19.858;2022-08-20T15:01:54;101182.63;;;29.85;48.93
60697;BME280;46536;54.376;19.858;2022-08-20T15:04:39;101185.14;;;29.82;49.11
60697;BME280;46536;54.376;19.858;2022-08-20T15:17:05;101209.52;;;29.49;50.07
60697;BME280;46536;54.376;19.858;2022-08-20T15:20:11;101211.91;;;29.38;50.36
60697;BME280;46536;54.376;19.858;2022-08-20T15:23:21;101214.56;;;29.32;50.63
60697;BME280;46536;54.376;19.858;2022-08-20T15:26:17;101213.98;;;29.27;50.87
60697;BME280;46536;54.376;19.858;2022-08-20T15:29:21;101214.90;;;29.22;51.04
60697;BME280;46536;54.376;19.858;2022-08-20T15:32:10;101214.30;;;29.21;51.39
60697;BME280;46536;54.376;19.858;2022-08-20T15:52:01;101208.30;;;28.89;52.42
60697;BME280;46536;54.376;19.858;2022-08-20T15:54:25;101208.29;;;28.86;52.52
60697;BME280;46536;54.376;19.858;2022-08-20T15:57:40;101205.52;;;28.81;52.53
60697;BME280;46536;54.376;19.858;2022-08-20T16:00:36;101207.35;;;28.77;52.67
60697;BME280;46536;54.376;19.858;2022-08-20T16:04:12;101205.00;;;28.74;52.97
60697;BME280;46536;54.376;19.858;2022-08-20T16:14:19;101208.04;;;28.66;53.54
60697;BME280;46536;54.376;19.858;2022-08-20T16:17:10;101212.33;;;28.66;53.53
60697;BME280;46536;54.376;19.858;2022-08-20T16:23:43;101207.61;;;28.70;54.19
60697;BME280;46536;54.376;19.858;2022-08-20T16:26:50;101208.70;;;28.75;54.94
60697;BME280;46536;54.376;19.858;2022-08-20T16:33:38;101206.18;;;28.87;56.52
60697;BME280;46536;54.376;19.858;2022-08-20T16:36:41;101207.61;;;28.92;56.92
60697;BME280;46536;54.376;19.858;2022-08-20T16:39:37;101214.59;;;28.97;57.15
60697;BME280;46536;54.376;19.858;2022-08-20T16:43:16;101215.29;;;28.94;57.35
60697;BME280;46536;54.376;19.858;2022-08-20T16:46:23;101218.02;;;28.83;57.20
60697;BME280;46536;54.376;19.858;2022-08-20T16:50:09;101216.70;;;28.70;56.79
60697;BME280;46536;54.376;19.858;2022-08-20T16:52:42;101226.07;;;28.54;57.01
60697;BME280;46536;54.376;19.858;2022-08-20T16:55:44;101228.64;;;28.41;57.29
60697;BME280;46536;54.376;19.858;2022-08-20T16:58:55;101228.45;;;28.30;57.23
60697;BME280;46536;54.376;19.858;2022-08-20T17:05:03;101219.50;;;27.98;56.60
60697;BME280;46536;54.376;19.858;2022-08-20T17:08:20;101225.98;;;27.87;56.64
60697;BME280;46536;54.376;19.858;2022-08-20T17:11:39;101222.94;;;27.75;56.48
60697;BME280;46536;54.376;19.858;2022-08-20T17:14:30;101217.98;;;27.66;56.18
60697;BME280;46536;54.376;19.858;2022-08-20T17:20:26;101216.91;;;27.55;56.16
60697;BME280;46536;54.376;19.858;2022-08-20T17:23:26;101215.16;;;27.53;56.19
60697;BME280;46536;54.376;19.858;2022-08-20T17:27:33;101215.61;;;27.50;56.18
60697;BME280;46536;54.376;19.858;2022-08-20T17:34:01;101212.23;;;27.45;56.00
60697;BME280;46536;54.376;19.858;2022-08-20T17:37:09;101214.91;;;27.43;55.96
60697;BME280;46536;54.376;19.858;2022-08-20T17:40:03;101220.05;;;27.41;55.99
60697;BME280;46536;54.376;19.858;2022-08-20T17:43:03;101221.23;;;27.37;55.88
60697;BME280;46536;54.376;19.858;2022-08-20T17:46:19;101223.71;;;27.30;55.87
60697;BME280;46536;54.376;19.858;2022-08-20T17:49:18;101236.56;;;27.24;55.99
60697;BME280;46536;54.376;19.858;2022-08-20T17:52:30;101240.86;;;27.17;56.23
60697;BME280;46536;54.376;19.858;2022-08-20T17:55:23;101239.27;;;27.12;56.37
60697;BME280;46536;54.376;19.858;2022-08-20T17:58:03;101239.31;;;27.07;56.39
60697;BME280;46536;54.376;19.858;2022-08-20T18:00:43;101245.21;;;27.01;56.52
60697;BME280;46536;54.376;19.858;2022-08-20T18:03:33;101248.25;;;26.92;56.84
60697;BME280;46536;54.376;19.858;2022-08-20T18:07:08;101247.33;;;26.78;56.95
60697;BME280;46536;54.376;19.858;2022-08-20T18:16:05;101257.25;;;26.51;57.73
60697;BME280;46536;54.376;19.858;2022-08-20T18:19:14;101253.80;;;26.48;57.99
60697;BME280;46536;54.376;19.858;2022-08-20T18:22:23;101243.30;;;26.46;58.18
60697;BME280;46536;54.376;19.858;2022-08-20T18:28:39;101219.91;;;26.46;58.26
60697;BME280;46536;54.376;19.858;2022-08-20T18:31:42;101224.52;;;26.49;58.24
60697;BME280;46536;54.376;19.858;2022-08-20T18:34:42;101236.82;;;26.46;58.17
60697;BME280;46536;54.376;19.858;2022-08-20T18:37:29;101238.26;;;26.40;58.41
60697;BME280;46536;54.376;19.858;2022-08-20T18:41:55;101234.75;;;26.40;58.29
60697;BME280;46536;54.376;19.858;2022-08-20T18:44:25;101237.31;;;26.43;58.51
60697;BME280;46536;54.376;19.858;2022-08-20T18:47:56;101238.17;;;26.45;58.65
60697;BME280;46536;54.376;19.858;2022-08-20T18:51:02;101233.81;;;26.46;58.66
60697;BME280;46536;54.376;19.858;2022-08-20T18:53:49;101225.38;;;26.45;58.38
60697;BME280;46536;54.376;19.858;2022-08-20T18:56:45;101220.30;;;26.42;58.14
60697;BME280;46536;54.376;19.858;2022-08-20T19:05:26;101227.20;;;26.33;57.82
60697;BME280;46536;54.376;19.858;2022-08-20T19:08:20;101222.75;;;26.31;57.85
60697;BME280;46536;54.376;19.858;2022-08-20T19:15:00;101228.10;;;26.29;57.62
60697;BME280;46536;54.376;19.858;2022-08-20T19:21:30;101229.84;;;26.24;57.69
60697;BME280;46536;54.376;19.858;2022-08-20T19:24:41;101224.76;;;26.21;57.84
60697;BME280;46536;54.376;19.858;2022-08-20T19:27:28;101223.65;;;26.16;57.71
60697;BME280;46536;54.376;19.858;2022-08-20T19:30:33;101222.81;;;26.10;57.68
60697;BME280;46536;54.376;19.858;2022-08-20T19:33:32;101226.09;;;26.05;57.76
60697;BME280;46536;54.376;19.858;2022-08-20T19:36:48;101233.39;;;25.98;57.96
60697;BME280;46536;54.376;19.858;2022-08-20T19:40:33;101237.24;;;25.87;58.11
60697;BME280;46536;54.376;19.858;2022-08-20T19:43:40;101240.41;;;25.79;58.47
60697;BME280;46536;54.376;19.858;2022-08-20T19:50:35;101233.93;;;25.69;59.09
60697;BME280;46536;54.376;19.858;2022-08-20T19:53:27;101219.70;;;25.64;59.21
60697;BME280;46536;54.376;19.858;2022-08-20T19:56:20;101215.05;;;25.63;59.60
60697;BME280;46536;54.376;19.858;2022-08-20T19:59:00;101211.45;;;25.65;59.95
60697;BME280;46536;54.376;19.858;2022-08-20T20:05:12;101210.14;;;25.68;60.10
60697;BME280;46536;54.376;19.858;2022-08-20T20:08:41;101206.17;;;25.65;59.92
60697;BME280;46536;54.376;19.858;2022-08-20T20:14:58;101199.35;;;25.60;60.31
60697;BME280;46536;54.376;19.858;2022-08-20T20:17:40;101193.43;;;25.59;60.40
60697;BME280;46536;54.376;19.858;2022-08-20T20:20:51;101189.11;;;25.55;60.42
60697;BME280;46536;54.376;19.858;2022-08-20T20:23:56;101187.55;;;25.51;60.21
60697;BME280;46536;54.376;19.858;2022-08-20T20:26:40;101185.54;;;25.47;60.26
60697;BME280;46536;54.376;19.858;2022-08-20T20:29:38;101180.66;;;25.44;60.43